Time,TemperatureF,DewpointF,PressureIn,WindDirection,WindDirectionDegrees,WindSpeedMPH,WindSpeedGustMPH,Humidity,HourlyPrecipIn,Conditions,Clouds,dailyrainin,SoftwareType,DateUTC
2013-02-18 00:03:00,44.6,36.2,29.60,North,0,0.0,0.0,72,0.00,,,0.00,WUHU216HW,2013-02-18 08:03:00,
2013-02-18 00:08:00,44.5,36.0,29.60,North,0,0.0,0.0,72,0.00,,,0.00,WUHU216HW,2013-02-18 08:08:00,
2013-02-18 00:13:00,44.5,36.4,29.60,North,0,0.0,0.0,73,0.00,,,0.00,WUHU216HW,2013-02-18 08:13:00,
2013-02-18 00:18:00,44.3,36.2,29.60,North,0,0.0,0.0,73,0.00,,,0.00,WUHU216HW,2013-02-18 08:18:00,
2013-02-18 00:24:00,44.3,36.2,29.61,North,0,0.0,0.0,73,0.00,,,0.00,WUHU216HW,2013-02-18 08:24:00,
2013-02-18 00:29:00,44.1,36.0,29.61,North,0,0.0,0.0,73,0.00,,,0.00,WUHU216HW,2013-02-18 08:29:00,
2013-02-18 00:34:00,43.9,35.8,29.61,North,0,0.0,0.0,73,0.00,,,0.00,WUHU216HW,2013-02-18 08:34:00,
2013-02-18 00:39:00,43.7,35.3,29.61,North,0,0.0,0.0,72,0.00,,,0.00,WUHU216HW,2013-02-18 08:39:00,
2013-02-18 00:44:00,43.6,35.2,29.61,North,0,0.0,0.0,72,0.00,,,0.00,WUHU216HW,2013-02-18 08:44:00,
2013-02-18 00:49:00,43.4,35.3,29.61,North,0,0.0,0.0,73,0.00,,,0.00,WUHU216HW,2013-02-18 08:49:00,
2013-02-18 00:54:00,43.2,35.2,29.61,North,0,0.0,0.0,73,0.00,,,0.00,WUHU216HW,2013-02-18 08:54:00,
2013-02-18 00:59:00,43.2,35.2,29.61,North,0,0.0,0.0,73,0.00,,,0.00,WUHU216HW,2013-02-18 08:59:00,
2013-02-18 01:04:00,43.0,35.0,29.61,North,0,0.0,0.0,73,0.00,,,0.00,WUHU216HW,2013-02-18 09:04:00,
2013-02-18 01:09:00,42.8,34.8,29.61,North,0,0.0,0.0,73,0.00,,,0.00,WUHU216HW,2013-02-18 09:09:00,
2013-02-18 01:14:00,42.8,34.8,29.62,North,0,0.0,0.0,73,0.00,,,0.00,WUHU216HW,2013-02-18 09:14:00,
2013-02-18 01:19:00,42.5,34.7,29.61,North,0,0.0,0.0,74,0.00,,,0.00,WUHU216HW,2013-02-18 09:19:00,
2013-02-18 01:24:00,42.5,34.7,29.61,North,0,0.0,0.0,74,0.00,,,0.00,WUHU216HW,2013-02-18 09:24:00,
2013-02-18 01:29:00,42.5,34.7,29.61,North,0,0.0,0.0,74,0.00,,,0.00,WUHU216HW,2013-02-18 09:29:00,
2013-02-18 01:34:00,42.3,34.6,29.61,North,0,0.0,0.0,74,0.00,,,0.00,WUHU216HW,2013-02-18 09:34:00,
2013-02-18 01:40:00,42.3,34.6,29.61,North,0,0.0,0.0,74,0.00,,,0.00,WUHU216HW,2013-02-18 09:40:00,
2013-02-18 01:45:00,42.1,34.4,29.61,North,0,0.0,0.0,74,0.00,,,0.00,WUHU216HW,2013-02-18 09:45:00,
2013-02-18 01:50:00,42.1,34.4,29.61,North,0,0.0,0.0,74,0.00,,,0.00,WUHU216HW,2013-02-18 09:50:00,
2013-02-18 01:55:00,41.9,34.2,29.61,North,0,0.0,0.0,74,0.00,,,0.00,WUHU216HW,2013-02-18 09:55:00,
2013-02-18 02:00:00,41.8,34.4,29.61,North,0,0.0,0.0,75,0.00,,,0.00,WUHU216HW,2013-02-18 10:00:00,
2013-02-18 02:05:00,41.6,34.2,29.61,North,0,0.0,0.0,75,0.00,,,0.00,WUHU216HW,2013-02-18 10:05:00,
2013-02-18 02:10:00,41.4,34.0,29.61,North,0,0.0,0.0,75,0.00,,,0.00,WUHU216HW,2013-02-18 10:10:00,
2013-02-18 02:15:00,41.4,34.4,29.61,North,0,0.0,0.0,76,0.00,,,0.00,WUHU216HW,2013-02-18 10:15:00,
2013-02-18 02:20:00,41.4,34.4,29.61,North,0,0.0,0.0,76,0.00,,,0.00,WUHU216HW,2013-02-18 10:20:00,
2013-02-18 02:25:00,41.2,34.2,29.62,North,0,0.0,0.0,76,0.00,,,0.00,WUHU216HW,2013-02-18 10:25:00,
2013-02-18 02:30:00,41.0,34.0,29.62,North,0,0.0,0.0,76,0.00,,,0.00,WUHU216HW,2013-02-18 10:30:00,
2013-02-18 02:36:00,41.0,34.0,29.62,North,0,0.0,0.0,76,0.00,,,0.00,WUHU216HW,2013-02-18 10:36:00,
2013-02-18 02:41:00,40.9,34.1,29.61,North,0,0.0,0.0,77,0.00,,,0.00,WUHU216HW,2013-02-18 10:41:00,
2013-02-18 02:46:00,41.0,34.3,29.61,North,0,0.0,0.0,77,0.00,,,0.00,WUHU216HW,2013-02-18 10:46:00,
2013-02-18 02:51:00,41.2,34.5,29.61,North,0,0.0,0.0,77,0.00,,,0.00,WUHU216HW,2013-02-18 10:51:00,
2013-02-18 02:56:00,41.4,35.0,29.61,North,0,0.0,0.0,78,0.00,,,0.00,WUHU216HW,2013-02-18 10:56:00,
2013-02-18 03:01:00,41.4,34.7,29.60,North,0,0.0,0.0,77,0.00,,,0.00,WUHU216HW,2013-02-18 11:01:00,
2013-02-18 03:06:00,41.2,34.8,29.60,North,0,0.0,0.0,78,0.00,,,0.00,WUHU216HW,2013-02-18 11:06:00,
2013-02-18 03:11:00,41.2,34.8,29.60,North,0,0.0,0.0,78,0.00,,,0.00,WUHU216HW,2013-02-18 11:11:00,
2013-02-18 03:16:00,41.2,34.8,29.59,North,0,0.0,0.0,78,0.00,,,0.00,WUHU216HW,2013-02-18 11:16:00,
2013-02-18 03:21:00,41.0,34.7,29.59,North,0,0.0,0.0,78,0.00,,,0.00,WUHU216HW,2013-02-18 11:21:00,
2013-02-18 03:26:00,41.0,34.7,29.59,North,0,0.0,0.0,78,0.00,,,0.00,WUHU216HW,2013-02-18 11:26:00,
2013-02-18 03:31:00,40.9,34.5,29.59,North,0,0.0,0.0,78,0.00,,,0.00,WUHU216HW,2013-02-18 11:31:00,
2013-02-18 03:36:00,40.9,34.8,29.59,North,0,0.0,0.0,79,0.00,,,0.00,WUHU216HW,2013-02-18 11:36:00,
2013-02-18 03:41:00,40.7,34.7,29.59,North,0,0.0,0.0,79,0.00,,,0.00,WUHU216HW,2013-02-18 11:41:00,
2013-02-18 03:46:00,40.7,34.7,29.59,North,0,0.0,0.0,79,0.00,,,0.00,WUHU216HW,2013-02-18 11:46:00,
2013-02-18 03:51:00,40.7,34.7,29.59,North,0,0.0,0.0,79,0.00,,,0.00,WUHU216HW,2013-02-18 11:51:00,
2013-02-18 03:56:00,40.7,34.9,29.59,North,0,0.0,0.0,80,0.00,,,0.00,WUHU216HW,2013-02-18 11:56:00,
2013-02-18 04:01:00,40.9,35.1,29.59,North,0,0.0,0.0,80,0.00,,,0.00,WUHU216HW,2013-02-18 12:01:00,
2013-02-18 04:06:00,40.9,35.1,29.59,North,0,0.0,0.0,80,0.00,,,0.00,WUHU216HW,2013-02-18 12:06:00,
2013-02-18 04:12:00,41.0,35.3,29.59,North,0,0.0,0.0,80,0.00,,,0.00,WUHU216HW,2013-02-18 12:12:00,
2013-02-18 04:17:00,40.9,35.1,29.59,North,0,0.0,0.0,80,0.00,,,0.00,WUHU216HW,2013-02-18 12:17:00,
2013-02-18 04:22:00,40.7,34.9,29.59,North,0,0.0,0.0,80,0.00,,,0.00,WUHU216HW,2013-02-18 12:22:00,
2013-02-18 04:27:00,40.7,34.9,29.59,North,0,0.0,0.0,80,0.00,,,0.00,WUHU216HW,2013-02-18 12:27:00,
2013-02-18 04:32:00,40.7,34.9,29.59,North,0,0.0,0.0,80,0.00,,,0.00,WUHU216HW,2013-02-18 12:32:00,
2013-02-18 04:37:00,40.5,34.8,29.59,North,0,0.0,0.0,80,0.00,,,0.00,WUHU216HW,2013-02-18 12:37:00,
2013-02-18 04:42:00,40.5,34.8,29.59,North,0,0.0,0.0,80,0.00,,,0.00,WUHU216HW,2013-02-18 12:42:00,
2013-02-18 04:47:00,40.5,34.8,29.59,North,0,0.0,0.0,80,0.00,,,0.00,WUHU216HW,2013-02-18 12:47:00,
2013-02-18 04:52:00,40.3,34.7,29.59,North,0,0.0,0.0,80,0.00,,,0.00,WUHU216HW,2013-02-18 12:52:00,
2013-02-18 04:57:00,40.3,34.9,29.59,North,0,0.0,0.0,81,0.00,,,0.00,WUHU216HW,2013-02-18 12:57:00,
2013-02-18 05:02:00,40.3,34.9,29.59,North,0,0.0,0.0,81,0.00,,,0.00,WUHU216HW,2013-02-18 13:02:00,
2013-02-18 05:07:00,40.1,34.7,29.59,North,0,0.0,0.0,81,0.00,,,0.00,WUHU216HW,2013-02-18 13:07:00,
2013-02-18 05:12:00,40.0,34.3,29.59,North,0,0.0,0.0,80,0.00,,,0.00,WUHU216HW,2013-02-18 13:12:00,
2013-02-18 05:17:00,40.1,34.5,29.59,North,0,0.0,0.0,80,0.00,,,0.00,WUHU216HW,2013-02-18 13:17:00,
2013-02-18 05:22:00,40.1,34.5,29.60,North,0,0.0,0.0,80,0.00,,,0.00,WUHU216HW,2013-02-18 13:22:00,
2013-02-18 05:27:00,40.0,34.3,29.59,North,0,0.0,0.0,80,0.00,,,0.00,WUHU216HW,2013-02-18 13:27:00,
2013-02-18 05:32:00,40.0,34.3,29.59,North,0,0.0,0.0,80,0.00,,,0.00,WUHU216HW,2013-02-18 13:32:00,
2013-02-18 05:38:00,40.0,34.3,29.59,North,0,0.0,0.0,80,0.00,,,0.00,WUHU216HW,2013-02-18 13:38:00,
2013-02-18 05:43:00,39.8,34.1,29.59,North,0,0.0,0.0,80,0.00,,,0.00,WUHU216HW,2013-02-18 13:43:00,
2013-02-18 05:48:00,39.6,34.0,29.59,North,0,0.0,0.0,80,0.00,,,0.00,WUHU216HW,2013-02-18 13:48:00,
2013-02-18 05:53:00,39.4,33.9,29.60,North,0,0.0,0.0,80,0.00,,,0.00,WUHU216HW,2013-02-18 13:53:00,
2013-02-18 05:58:00,39.2,33.9,29.60,North,0,0.0,0.0,81,0.00,,,0.00,WUHU216HW,2013-02-18 13:58:00,
2013-02-18 06:03:00,39.2,33.9,29.59,North,0,0.0,0.0,81,0.00,,,0.00,WUHU216HW,2013-02-18 14:03:00,
2013-02-18 06:08:00,39.1,33.8,29.60,North,0,0.0,0.0,81,0.00,,,0.00,WUHU216HW,2013-02-18 14:08:00,
2013-02-18 06:13:00,39.1,33.8,29.60,North,0,0.0,0.0,81,0.00,,,0.00,WUHU216HW,2013-02-18 14:13:00,
2013-02-18 06:18:00,38.9,33.6,29.60,North,0,0.0,0.0,81,0.00,,,0.00,WUHU216HW,2013-02-18 14:18:00,
2013-02-18 06:23:00,38.9,33.8,29.60,North,0,0.0,0.0,82,0.00,,,0.00,WUHU216HW,2013-02-18 14:23:00,
2013-02-18 06:28:00,38.9,33.8,29.60,North,0,0.0,0.0,82,0.00,,,0.00,WUHU216HW,2013-02-18 14:28:00,
2013-02-18 06:33:00,38.9,33.8,29.60,North,0,0.0,0.0,82,0.00,,,0.00,WUHU216HW,2013-02-18 14:33:00,
2013-02-18 06:38:00,39.1,34.0,29.61,North,0,0.0,0.0,82,0.00,,,0.00,WUHU216HW,2013-02-18 14:38:00,
2013-02-18 06:43:00,39.1,34.0,29.61,North,0,0.0,0.0,82,0.00,,,0.00,WUHU216HW,2013-02-18 14:43:00,
2013-02-18 06:48:00,38.9,33.8,29.61,North,0,0.0,0.0,82,0.00,,,0.00,WUHU216HW,2013-02-18 14:48:00,
2013-02-18 06:53:00,38.9,33.8,29.61,North,0,0.0,0.0,82,0.00,,,0.00,WUHU216HW,2013-02-18 14:53:00,
2013-02-18 06:59:00,38.7,33.7,29.60,North,0,0.0,0.0,82,0.00,,,0.00,WUHU216HW,2013-02-18 14:59:00,
2013-02-18 07:04:00,38.7,33.7,29.61,North,0,0.0,0.0,82,0.00,,,0.00,WUHU216HW,2013-02-18 15:04:00,
2013-02-18 07:09:00,38.7,34.0,29.60,North,0,0.0,0.0,83,0.00,,,0.00,WUHU216HW,2013-02-18 15:09:00,
2013-02-18 07:14:00,38.7,34.0,29.61,North,0,0.0,0.0,83,0.00,,,0.00,WUHU216HW,2013-02-18 15:14:00,
2013-02-18 07:19:00,38.9,34.2,29.61,North,0,0.0,0.0,83,0.00,,,0.00,WUHU216HW,2013-02-18 15:19:00,
2013-02-18 07:24:00,39.1,34.7,29.61,North,0,0.0,0.0,84,0.00,,,0.00,WUHU216HW,2013-02-18 15:24:00,
2013-02-18 07:29:00,39.2,34.8,29.61,North,0,0.0,0.0,84,0.00,,,0.00,WUHU216HW,2013-02-18 15:29:00,
2013-02-18 07:34:00,39.2,34.8,29.61,North,0,0.0,0.0,84,0.00,,,0.00,WUHU216HW,2013-02-18 15:34:00,
2013-02-18 07:39:00,39.6,35.2,29.62,North,0,0.0,0.0,84,0.00,,,0.00,WUHU216HW,2013-02-18 15:39:00,
2013-02-18 07:44:00,39.8,35.3,29.62,North,0,0.0,0.0,84,0.00,,,0.00,WUHU216HW,2013-02-18 15:44:00,
2013-02-18 07:49:00,40.3,36.1,29.62,North,0,0.0,0.0,85,0.00,,,0.00,WUHU216HW,2013-02-18 15:49:00,
2013-02-18 07:54:00,40.9,36.6,29.62,North,0,0.0,0.0,85,0.00,,,0.00,WUHU216HW,2013-02-18 15:54:00,
2013-02-18 07:59:00,41.4,37.2,29.62,North,0,0.0,0.0,85,0.00,,,0.00,WUHU216HW,2013-02-18 15:59:00,
2013-02-18 08:05:00,41.8,37.5,29.62,North,0,0.0,0.0,85,0.00,,,0.00,WUHU216HW,2013-02-18 16:05:00,
2013-02-18 08:10:00,42.3,38.3,29.62,North,0,0.0,0.0,86,0.00,,,0.00,WUHU216HW,2013-02-18 16:10:00,
2013-02-18 08:15:00,43.0,39.1,29.62,North,0,0.0,0.0,86,0.00,,,0.00,WUHU216HW,2013-02-18 16:15:00,
2013-02-18 08:20:00,43.6,40.0,29.62,North,0,0.0,0.0,87,0.00,,,0.00,WUHU216HW,2013-02-18 16:20:00,
2013-02-18 08:25:00,44.3,40.7,29.63,North,0,0.0,0.0,87,0.00,,,0.00,WUHU216HW,2013-02-18 16:25:00,
2013-02-18 08:30:00,45.0,41.4,29.63,North,0,0.0,0.0,87,0.00,,,0.00,WUHU216HW,2013-02-18 16:30:00,
2013-02-18 08:35:00,45.4,41.8,29.63,North,0,0.0,0.0,87,0.00,,,0.00,WUHU216HW,2013-02-18 16:35:00,
2013-02-18 08:40:00,45.9,41.9,29.63,North,0,0.0,0.0,86,0.00,,,0.00,WUHU216HW,2013-02-18 16:40:00,
2013-02-18 08:45:00,46.3,42.0,29.63,North,0,0.0,0.0,85,0.00,,,0.00,WUHU216HW,2013-02-18 16:45:00,
2013-02-18 08:50:00,46.6,42.4,29.63,North,0,0.0,0.0,85,0.00,,,0.00,WUHU216HW,2013-02-18 16:50:00,
2013-02-18 08:55:00,47.2,42.9,29.63,North,0,0.0,0.0,85,0.00,,,0.00,WUHU216HW,2013-02-18 16:55:00,
2013-02-18 09:00:00,47.3,43.0,29.63,North,0,0.0,0.0,85,0.00,,,0.00,WUHU216HW,2013-02-18 17:00:00,
2013-02-18 09:05:00,47.9,43.6,29.63,North,0,0.0,0.0,85,0.00,,,0.00,WUHU216HW,2013-02-18 17:05:00,
2013-02-18 09:10:00,48.4,44.1,29.63,North,0,0.0,0.0,85,0.00,,,0.00,WUHU216HW,2013-02-18 17:10:00,
2013-02-18 09:15:00,49.0,44.3,29.63,North,0,0.0,0.0,84,0.00,,,0.00,WUHU216HW,2013-02-18 17:15:00,
2013-02-18 09:20:00,49.3,44.7,29.64,North,0,0.0,0.0,84,0.00,,,0.00,WUHU216HW,2013-02-18 17:20:00,
2013-02-18 09:26:00,49.5,44.5,29.64,North,0,0.0,0.0,83,0.00,,,0.00,WUHU216HW,2013-02-18 17:26:00,
2013-02-18 09:31:00,49.7,45.0,29.64,North,0,0.0,0.0,84,0.00,,,0.00,WUHU216HW,2013-02-18 17:31:00,
2013-02-18 09:36:00,49.9,44.8,29.64,North,0,0.0,0.0,83,0.00,,,0.00,WUHU216HW,2013-02-18 17:36:00,
2013-02-18 09:41:00,50.0,44.7,29.64,North,0,0.0,0.0,82,0.00,,,0.00,WUHU216HW,2013-02-18 17:41:00,
2013-02-18 09:46:00,50.6,45.3,29.63,North,0,0.0,0.0,82,0.00,,,0.00,WUHU216HW,2013-02-18 17:46:00,
2013-02-18 09:51:00,50.8,45.1,29.63,North,0,0.0,0.0,81,0.00,,,0.00,WUHU216HW,2013-02-18 17:51:00,
2013-02-18 09:56:00,51.3,45.4,29.63,North,0,0.0,0.0,80,0.00,,,0.00,WUHU216HW,2013-02-18 17:56:00,
2013-02-18 10:01:00,51.8,45.9,29.64,North,0,0.0,0.0,80,0.00,,,0.00,WUHU216HW,2013-02-18 18:01:00,
2013-02-18 10:06:00,52.2,45.9,29.64,North,0,0.0,0.0,79,0.00,,,0.00,WUHU216HW,2013-02-18 18:06:00,
2013-02-18 10:11:00,52.9,46.3,29.64,North,0,0.0,0.0,78,0.00,,,0.00,WUHU216HW,2013-02-18 18:11:00,
2013-02-18 10:16:00,52.9,46.3,29.64,North,0,0.0,0.0,78,0.00,,,0.00,WUHU216HW,2013-02-18 18:16:00,
2013-02-18 10:21:00,53.3,46.3,29.64,North,0,0.0,0.0,77,0.00,,,0.00,WUHU216HW,2013-02-18 18:21:00,
2013-02-18 10:26:00,54.0,46.6,29.64,North,0,0.0,0.0,76,0.00,,,0.00,WUHU216HW,2013-02-18 18:26:00,
2013-02-18 10:31:00,54.4,46.6,29.63,North,0,0.0,0.0,75,0.00,,,0.00,WUHU216HW,2013-02-18 18:31:00,
2013-02-18 10:36:00,54.4,46.6,29.63,North,0,0.0,0.0,75,0.00,,,0.00,WUHU216HW,2013-02-18 18:36:00,
2013-02-18 10:41:00,54.5,46.8,29.63,North,0,0.0,0.0,75,0.00,,,0.00,WUHU216HW,2013-02-18 18:41:00,
2013-02-18 10:47:00,54.9,46.7,29.63,North,0,0.0,0.0,74,0.00,,,0.00,WUHU216HW,2013-02-18 18:47:00,
2013-02-18 10:52:00,55.1,46.9,29.63,North,0,0.0,0.0,74,0.00,,,0.00,WUHU216HW,2013-02-18 18:52:00,
2013-02-18 10:57:00,55.4,46.9,29.63,North,0,0.0,0.0,73,0.00,,,0.00,WUHU216HW,2013-02-18 18:57:00,
2013-02-18 11:02:00,55.8,47.3,29.63,North,0,0.0,0.0,73,0.00,,,0.00,WUHU216HW,2013-02-18 19:02:00,
2013-02-18 11:07:00,56.0,47.1,29.63,North,0,0.0,0.0,72,0.00,,,0.00,WUHU216HW,2013-02-18 19:07:00,
2013-02-18 11:12:00,56.2,47.3,29.63,North,0,0.0,0.0,72,0.00,,,0.00,WUHU216HW,2013-02-18 19:12:00,
2013-02-18 11:17:00,56.5,47.3,29.63,North,0,0.0,0.0,71,0.00,,,0.00,WUHU216HW,2013-02-18 19:17:00,
2013-02-18 11:22:00,56.7,47.1,29.63,North,0,0.0,0.0,70,0.00,,,0.00,WUHU216HW,2013-02-18 19:22:00,
2013-02-18 11:28:00,56.9,47.2,29.62,North,0,0.0,0.0,70,0.00,,,0.00,WUHU216HW,2013-02-18 19:28:00,
2013-02-18 11:33:00,57.2,47.2,29.62,North,0,0.0,0.0,69,0.00,,,0.00,WUHU216HW,2013-02-18 19:33:00,
2013-02-18 11:38:00,57.4,47.4,29.62,North,0,0.0,0.0,69,0.00,,,0.00,WUHU216HW,2013-02-18 19:38:00,
2013-02-18 11:43:00,58.0,47.4,29.62,North,0,0.0,0.0,68,0.00,,,0.00,WUHU216HW,2013-02-18 19:43:00,
2013-02-18 11:48:00,58.5,48.0,29.62,North,0,0.0,0.0,68,0.00,,,0.00,WUHU216HW,2013-02-18 19:48:00,
2013-02-18 11:53:00,58.9,47.1,29.62,North,0,0.0,0.0,65,0.00,,,0.00,WUHU216HW,2013-02-18 19:53:00,
2013-02-18 11:58:00,58.7,46.9,29.61,North,0,0.0,0.0,65,0.00,,,0.00,WUHU216HW,2013-02-18 19:58:00,
2013-02-18 12:03:00,58.5,46.7,29.61,North,0,0.0,0.0,65,0.00,,,0.00,WUHU216HW,2013-02-18 20:03:00,
2013-02-18 12:08:00,58.5,46.4,29.60,North,0,0.0,0.0,64,0.00,,,0.00,WUHU216HW,2013-02-18 20:08:00,
2013-02-18 12:13:00,58.7,46.5,29.60,North,0,0.0,0.0,64,0.00,,,0.00,WUHU216HW,2013-02-18 20:13:00,
2013-02-18 12:19:00,58.9,46.7,29.60,North,0,0.0,0.0,64,0.00,,,0.00,WUHU216HW,2013-02-18 20:19:00,
2013-02-18 12:24:00,59.6,47.3,29.60,North,0,0.0,0.0,64,0.00,,,0.00,WUHU216HW,2013-02-18 20:24:00,
2013-02-18 12:29:00,59.9,47.4,29.60,North,0,0.0,0.0,63,0.00,,,0.00,WUHU216HW,2013-02-18 20:29:00,
2013-02-18 12:34:00,60.3,47.7,29.59,North,0,0.0,0.0,63,0.00,,,0.00,WUHU216HW,2013-02-18 20:34:00,
2013-02-18 12:39:00,60.1,47.5,29.59,North,0,0.0,0.0,63,0.00,,,0.00,WUHU216HW,2013-02-18 20:39:00,
2013-02-18 12:44:00,59.9,46.9,29.59,North,0,0.0,0.0,62,0.00,,,0.00,WUHU216HW,2013-02-18 20:44:00,
2013-02-18 12:49:00,60.1,47.1,29.59,North,0,0.0,0.0,62,0.00,,,0.00,WUHU216HW,2013-02-18 20:49:00,
2013-02-18 12:54:00,60.5,47.4,29.59,North,0,0.0,0.0,62,0.00,,,0.00,WUHU216HW,2013-02-18 20:54:00,
2013-02-18 12:59:00,60.8,47.4,29.59,North,0,0.0,0.0,61,0.00,,,0.00,WUHU216HW,2013-02-18 20:59:00,
2013-02-18 13:04:00,60.7,47.3,29.59,North,0,0.0,0.0,61,0.00,,,0.00,WUHU216HW,2013-02-18 21:04:00,
2013-02-18 13:09:00,60.3,46.9,29.59,North,0,0.0,0.0,61,0.00,,,0.00,WUHU216HW,2013-02-18 21:09:00,
2013-02-18 13:14:00,60.3,46.4,29.58,North,0,0.0,0.0,60,0.00,,,0.00,WUHU216HW,2013-02-18 21:14:00,
2013-02-18 13:19:00,60.3,46.9,29.58,North,0,0.0,0.0,61,0.00,,,0.00,WUHU216HW,2013-02-18 21:19:00,
2013-02-18 13:24:00,60.8,46.5,29.58,North,0,0.0,0.0,59,0.00,,,0.00,WUHU216HW,2013-02-18 21:24:00,
2013-02-18 13:30:00,61.0,46.6,29.57,North,0,0.0,0.0,59,0.00,,,0.00,WUHU216HW,2013-02-18 21:30:00,
2013-02-18 13:35:00,60.8,46.5,29.56,North,0,0.0,0.0,59,0.00,,,0.00,WUHU216HW,2013-02-18 21:35:00,
2013-02-18 13:40:00,60.5,46.2,29.56,North,0,0.0,0.0,59,0.00,,,0.00,WUHU216HW,2013-02-18 21:40:00,
2013-02-18 13:45:00,60.1,46.3,29.56,North,0,0.0,0.0,60,0.00,,,0.00,WUHU216HW,2013-02-18 21:45:00,
2013-02-18 13:50:00,60.3,46.0,29.56,North,0,0.0,0.0,59,0.00,,,0.00,WUHU216HW,2013-02-18 21:50:00,
2013-02-18 13:55:00,60.1,45.8,29.56,North,0,0.0,0.0,59,0.00,,,0.00,WUHU216HW,2013-02-18 21:55:00,
2013-02-18 14:00:00,59.9,45.6,29.56,North,0,0.0,0.0,59,0.00,,,0.00,WUHU216HW,2013-02-18 22:00:00,
2013-02-18 14:05:00,59.8,45.5,29.56,North,0,0.0,0.0,59,0.00,,,0.00,WUHU216HW,2013-02-18 22:05:00,
2013-02-18 14:10:00,59.9,45.6,29.56,North,0,0.0,0.0,59,0.00,,,0.00,WUHU216HW,2013-02-18 22:10:00,
2013-02-18 14:15:00,59.9,45.6,29.56,North,0,0.0,0.0,59,0.00,,,0.00,WUHU216HW,2013-02-18 22:15:00,
2013-02-18 14:21:00,59.8,45.5,29.56,North,0,0.0,0.0,59,0.00,,,0.00,WUHU216HW,2013-02-18 22:21:00,
2013-02-18 14:26:00,59.6,45.3,29.55,North,0,0.0,0.0,59,0.00,,,0.00,WUHU216HW,2013-02-18 22:26:00,
2013-02-18 14:31:00,59.4,45.1,29.55,North,0,0.0,0.0,59,0.00,,,0.00,WUHU216HW,2013-02-18 22:31:00,
2013-02-18 14:36:00,59.2,45.4,29.55,North,0,0.0,0.0,60,0.00,,,0.00,WUHU216HW,2013-02-18 22:36:00,
2013-02-18 14:41:00,59.0,44.7,29.55,North,0,0.0,0.0,59,0.00,,,0.00,WUHU216HW,2013-02-18 22:41:00,
2013-02-18 14:46:00,58.9,44.1,29.55,North,0,0.0,0.0,58,0.00,,,0.00,WUHU216HW,2013-02-18 22:46:00,
2013-02-18 14:51:00,58.5,43.7,29.56,North,0,0.0,0.0,58,0.00,,,0.00,WUHU216HW,2013-02-18 22:51:00,
2013-02-18 14:56:00,58.0,43.3,29.56,North,0,0.0,0.0,58,0.00,,,0.00,WUHU216HW,2013-02-18 22:56:00,
2013-02-18 15:01:00,57.2,43.6,29.55,North,0,0.0,0.0,60,0.00,,,0.00,WUHU216HW,2013-02-18 23:01:00,
2013-02-18 15:07:00,56.7,43.4,29.55,North,0,0.0,0.0,61,0.00,,,0.00,WUHU216HW,2013-02-18 23:07:00,
2013-02-18 15:12:00,56.5,43.2,29.55,North,0,0.0,0.0,61,0.00,,,0.00,WUHU216HW,2013-02-18 23:12:00,
2013-02-18 15:17:00,56.5,43.2,29.55,North,0,0.0,0.0,61,0.00,,,0.00,WUHU216HW,2013-02-18 23:17:00,
2013-02-18 15:22:00,56.5,43.2,29.55,North,0,0.0,0.0,61,0.00,,,0.00,WUHU216HW,2013-02-18 23:22:00,
2013-02-18 15:27:00,56.5,43.2,29.55,North,0,0.0,0.0,61,0.00,,,0.00,WUHU216HW,2013-02-18 23:27:00,
2013-02-18 15:32:00,56.5,43.2,29.54,North,0,0.0,0.0,61,0.00,,,0.00,WUHU216HW,2013-02-18 23:32:00,
2013-02-18 15:37:00,56.2,43.3,29.54,North,0,0.0,0.0,62,0.00,,,0.00,WUHU216HW,2013-02-18 23:37:00,
2013-02-18 15:42:00,56.0,43.1,29.55,North,0,0.0,0.0,62,0.00,,,0.00,WUHU216HW,2013-02-18 23:42:00,
2013-02-18 15:47:00,55.8,42.6,29.55,North,0,0.0,0.0,61,0.00,,,0.00,WUHU216HW,2013-02-18 23:47:00,
2013-02-18 15:52:00,55.8,42.6,29.54,North,0,0.0,0.0,61,0.00,,,0.00,WUHU216HW,2013-02-18 23:52:00,
2013-02-18 15:57:00,55.8,42.6,29.54,North,0,0.0,0.0,61,0.00,,,0.00,WUHU216HW,2013-02-18 23:57:00,
2013-02-18 16:02:00,55.6,42.4,29.54,North,0,0.0,0.0,61,0.00,,,0.00,WUHU216HW,2013-02-19 00:02:00,
2013-02-18 16:07:00,55.4,42.2,29.54,North,0,0.0,0.0,61,0.00,,,0.00,WUHU216HW,2013-02-19 00:07:00,
2013-02-18 16:12:00,55.1,42.3,29.54,North,0,0.0,0.0,62,0.00,,,0.00,WUHU216HW,2013-02-19 00:12:00,
2013-02-18 16:17:00,54.9,42.1,29.54,North,0,0.0,0.0,62,0.00,,,0.00,WUHU216HW,2013-02-19 00:17:00,
2013-02-18 16:22:00,54.7,42.0,29.54,North,0,0.0,0.0,62,0.00,,,0.00,WUHU216HW,2013-02-19 00:22:00,
2013-02-18 16:27:00,54.5,41.3,29.54,North,0,0.0,0.0,61,0.00,,,0.00,WUHU216HW,2013-02-19 00:27:00,
2013-02-18 16:32:00,54.4,41.2,29.55,North,0,0.0,0.0,61,0.00,,,0.00,WUHU216HW,2013-02-19 00:32:00,
2013-02-18 16:37:00,54.2,41.1,29.55,North,0,0.0,0.0,61,0.00,,,0.00,WUHU216HW,2013-02-19 00:37:00,
2013-02-18 16:42:00,54.0,40.9,29.54,North,0,0.0,0.0,61,0.00,,,0.00,WUHU216HW,2013-02-19 00:42:00,
2013-02-18 16:47:00,54.0,41.2,29.54,North,0,0.0,0.0,62,0.00,,,0.00,WUHU216HW,2013-02-19 00:47:00,
2013-02-18 16:53:00,53.6,41.3,29.54,North,0,0.0,0.0,63,0.00,,,0.00,WUHU216HW,2013-02-19 00:53:00,
2013-02-18 16:58:00,53.5,41.6,29.54,North,0,0.0,0.0,64,0.00,,,0.00,WUHU216HW,2013-02-19 00:58:00,
2013-02-18 17:03:00,53.3,41.4,29.54,North,0,0.0,0.0,64,0.00,,,0.00,WUHU216HW,2013-02-19 01:03:00,
2013-02-18 17:08:00,53.1,41.2,29.54,North,0,0.0,0.0,64,0.00,,,0.00,WUHU216HW,2013-02-19 01:08:00,
2013-02-18 17:13:00,52.9,41.1,29.54,North,0,0.0,0.0,64,0.00,,,0.00,WUHU216HW,2013-02-19 01:13:00,
2013-02-18 17:18:00,52.6,41.1,29.54,North,0,0.0,0.0,65,0.00,,,0.00,WUHU216HW,2013-02-19 01:18:00,
2013-02-18 17:23:00,52.4,41.0,29.54,North,0,0.0,0.0,65,0.00,,,0.00,WUHU216HW,2013-02-19 01:23:00,
2013-02-18 17:28:00,52.2,40.8,29.54,North,0,0.0,0.0,65,0.00,,,0.00,WUHU216HW,2013-02-19 01:28:00,
2013-02-18 17:33:00,52.2,40.8,29.54,North,0,0.0,0.0,65,0.00,,,0.00,WUHU216HW,2013-02-19 01:33:00,
2013-02-18 17:38:00,52.0,40.6,29.54,North,0,0.0,0.0,65,0.00,,,0.00,WUHU216HW,2013-02-19 01:38:00,
2013-02-18 17:43:00,51.8,40.9,29.54,North,0,0.0,0.0,66,0.00,,,0.00,WUHU216HW,2013-02-19 01:43:00,
2013-02-18 17:48:00,51.8,40.9,29.55,North,0,0.0,0.0,66,0.00,,,0.00,WUHU216HW,2013-02-19 01:48:00,
2013-02-18 17:53:00,51.7,40.7,29.55,North,0,0.0,0.0,66,0.00,,,0.00,WUHU216HW,2013-02-19 01:53:00,
2013-02-18 17:59:00,51.5,40.5,29.55,North,0,0.0,0.0,66,0.00,,,0.00,WUHU216HW,2013-02-19 01:59:00,
2013-02-18 18:04:00,51.3,40.3,29.55,North,0,0.0,0.0,66,0.00,,,0.00,WUHU216HW,2013-02-19 02:04:00,
2013-02-18 18:09:00,51.1,40.5,29.55,North,0,0.0,0.0,67,0.00,,,0.00,WUHU216HW,2013-02-19 02:09:00,
2013-02-18 18:14:00,50.8,40.2,29.55,North,0,0.0,0.0,67,0.00,,,0.00,WUHU216HW,2013-02-19 02:14:00,
2013-02-18 18:19:00,50.6,40.1,29.55,North,0,0.0,0.0,67,0.00,,,0.00,WUHU216HW,2013-02-19 02:19:00,
2013-02-18 18:24:00,50.4,39.4,29.55,North,0,0.0,0.0,66,0.00,,,0.00,WUHU216HW,2013-02-19 02:24:00,
2013-02-18 18:29:00,50.2,39.7,29.55,North,0,0.0,0.0,67,0.00,,,0.00,WUHU216HW,2013-02-19 02:29:00,
2013-02-18 18:34:00,50.2,39.7,29.55,North,0,0.0,0.0,67,0.00,,,0.00,WUHU216HW,2013-02-19 02:34:00,
2013-02-18 18:39:00,50.0,39.5,29.55,North,0,0.0,0.0,67,0.00,,,0.00,WUHU216HW,2013-02-19 02:39:00,
2013-02-18 18:44:00,50.0,39.9,29.55,North,0,0.0,0.0,68,0.00,,,0.00,WUHU216HW,2013-02-19 02:44:00,
2013-02-18 18:49:00,50.0,39.9,29.55,North,0,0.0,0.0,68,0.00,,,0.00,WUHU216HW,2013-02-19 02:49:00,
2013-02-18 18:54:00,49.9,39.7,29.55,North,0,0.0,0.0,68,0.00,,,0.00,WUHU216HW,2013-02-19 02:54:00,
2013-02-18 18:59:00,49.9,39.7,29.55,North,0,0.0,0.0,68,0.00,,,0.00,WUHU216HW,2013-02-19 02:59:00,
2013-02-18 19:04:00,49.7,39.5,29.55,North,0,0.0,0.0,68,0.00,,,0.00,WUHU216HW,2013-02-19 03:04:00,
2013-02-18 19:09:00,49.7,39.5,29.55,North,0,0.0,0.0,68,0.00,,,0.00,WUHU216HW,2013-02-19 03:09:00,
2013-02-18 19:14:00,49.7,40.0,29.55,North,0,0.0,0.0,69,0.00,,,0.00,WUHU216HW,2013-02-19 03:14:00,
2013-02-18 19:19:00,49.7,40.0,29.55,North,0,0.0,0.0,69,0.00,,,0.00,WUHU216HW,2013-02-19 03:19:00,
2013-02-18 19:25:00,49.7,39.5,29.55,North,0,0.0,0.0,68,0.00,,,0.00,WUHU216HW,2013-02-19 03:25:00,
2013-02-18 19:30:00,49.5,39.8,29.55,North,0,0.0,0.0,69,0.00,,,0.00,WUHU216HW,2013-02-19 03:30:00,
2013-02-18 19:35:00,49.3,39.6,29.55,North,0,0.0,0.0,69,0.00,,,0.00,WUHU216HW,2013-02-19 03:35:00,
2013-02-18 19:40:00,49.3,39.6,29.55,North,0,0.0,0.0,69,0.00,,,0.00,WUHU216HW,2013-02-19 03:40:00,
2013-02-18 19:45:00,49.3,39.6,29.55,North,0,0.0,0.0,69,0.00,,,0.00,WUHU216HW,2013-02-19 03:45:00,
2013-02-18 19:50:00,49.1,39.4,29.55,North,0,0.0,0.0,69,0.00,,,0.00,WUHU216HW,2013-02-19 03:50:00,
2013-02-18 19:55:00,49.1,39.4,29.55,North,0,0.0,0.0,69,0.00,,,0.00,WUHU216HW,2013-02-19 03:55:00,
2013-02-18 20:00:00,49.0,39.3,29.55,North,0,0.0,0.0,69,0.00,,,0.00,WUHU216HW,2013-02-19 04:00:00,
2013-02-18 20:05:00,49.0,39.3,29.56,North,0,0.0,0.0,69,0.00,,,0.00,WUHU216HW,2013-02-19 04:05:00,
2013-02-18 20:10:00,49.0,39.3,29.56,North,0,0.0,0.0,69,0.00,,,0.00,WUHU216HW,2013-02-19 04:10:00,
2013-02-18 20:16:00,49.0,39.6,29.56,North,0,0.0,0.0,70,0.00,,,0.00,WUHU216HW,2013-02-19 04:16:00,
2013-02-18 20:21:00,49.0,39.6,29.56,North,0,0.0,0.0,70,0.00,,,0.00,WUHU216HW,2013-02-19 04:21:00,
2013-02-18 20:26:00,49.0,39.6,29.55,North,0,0.0,0.0,70,0.00,,,0.00,WUHU216HW,2013-02-19 04:26:00,
2013-02-18 20:31:00,49.1,39.4,29.56,North,0,0.0,0.0,69,0.00,,,0.00,WUHU216HW,2013-02-19 04:31:00,
2013-02-18 20:36:00,49.1,39.4,29.56,North,0,0.0,0.0,69,0.00,,,0.00,WUHU216HW,2013-02-19 04:36:00,
2013-02-18 20:41:00,49.0,39.6,29.55,North,0,0.0,0.0,70,0.00,,,0.00,WUHU216HW,2013-02-19 04:41:00,
2013-02-18 20:46:00,49.0,39.6,29.56,North,0,0.0,0.0,70,0.00,,,0.00,WUHU216HW,2013-02-19 04:46:00,
2013-02-18 20:51:00,48.8,39.4,29.56,North,0,0.0,0.0,70,0.00,,,0.00,WUHU216HW,2013-02-19 04:51:00,
2013-02-18 20:56:00,48.8,39.4,29.55,North,0,0.0,0.0,70,0.00,,,0.00,WUHU216HW,2013-02-19 04:56:00,
2013-02-18 21:00:00,48.8,39.4,29.55,North,0,0.0,0.0,70,0.00,,,0.00,WUHU216HW,2013-02-19 05:00:00,
2013-02-18 21:01:00,48.8,39.4,29.55,North,0,0.0,0.0,70,0.00,,,0.00,WUHU216HW,2013-02-19 05:01:00,
2013-02-18 21:06:00,48.8,39.8,29.55,North,0,0.0,0.0,71,0.00,,,0.00,WUHU216HW,2013-02-19 05:06:00,
2013-02-18 21:11:00,48.8,39.8,29.56,North,0,0.0,0.0,71,0.00,,,0.00,WUHU216HW,2013-02-19 05:11:00,
2013-02-18 21:16:00,48.8,39.8,29.56,North,0,0.0,0.0,71,0.00,,,0.00,WUHU216HW,2013-02-19 05:16:00,
2013-02-18 21:21:00,48.8,39.8,29.56,North,0,0.0,0.0,71,0.00,,,0.00,WUHU216HW,2013-02-19 05:21:00,
2013-02-18 21:26:00,48.8,39.8,29.56,North,0,0.0,0.0,71,0.00,,,0.00,WUHU216HW,2013-02-19 05:26:00,
2013-02-18 21:31:00,48.8,39.8,29.56,North,0,0.0,0.0,71,0.00,,,0.00,WUHU216HW,2013-02-19 05:31:00,
2013-02-18 21:36:00,48.8,40.2,29.56,North,0,0.0,0.0,72,0.00,,,0.00,WUHU216HW,2013-02-19 05:36:00,
2013-02-18 21:42:00,49.0,40.3,29.56,North,0,0.0,0.0,72,0.00,,,0.00,WUHU216HW,2013-02-19 05:42:00,
2013-02-18 21:47:00,49.1,40.5,29.56,North,0,0.0,0.0,72,0.00,,,0.00,WUHU216HW,2013-02-19 05:47:00,
2013-02-18 21:52:00,49.1,40.5,29.56,North,0,0.0,0.0,72,0.00,,,0.00,WUHU216HW,2013-02-19 05:52:00,
2013-02-18 21:57:00,49.0,40.3,29.56,North,0,0.0,0.0,72,0.00,,,0.00,WUHU216HW,2013-02-19 05:57:00,
2013-02-18 22:02:00,48.8,40.2,29.56,North,0,0.0,0.0,72,0.00,,,0.00,WUHU216HW,2013-02-19 06:02:00,
2013-02-18 22:07:00,48.6,40.0,29.56,North,0,0.0,0.0,72,0.00,,,0.00,WUHU216HW,2013-02-19 06:07:00,
2013-02-18 22:12:00,48.6,40.0,29.56,North,0,0.0,0.0,72,0.00,,,0.00,WUHU216HW,2013-02-19 06:12:00,
2013-02-18 22:17:00,48.4,40.4,29.56,North,0,0.0,0.0,74,0.00,,,0.00,WUHU216HW,2013-02-19 06:17:00,
2013-02-18 22:22:00,48.2,40.2,29.56,North,0,0.0,0.0,74,0.00,,,0.00,WUHU216HW,2013-02-19 06:22:00,
2013-02-18 22:27:00,48.2,40.2,29.56,North,0,0.0,0.0,74,0.00,,,0.00,WUHU216HW,2013-02-19 06:27:00,
2013-02-18 22:32:00,48.1,40.1,29.56,North,0,0.0,0.0,74,0.00,,,0.00,WUHU216HW,2013-02-19 06:32:00,
2013-02-18 22:37:00,47.9,40.0,29.56,North,0,0.0,0.0,74,0.00,,,0.00,WUHU216HW,2013-02-19 06:37:00,
2013-02-18 22:42:00,47.7,40.2,29.56,North,0,0.0,0.0,75,0.00,,,0.00,WUHU216HW,2013-02-19 06:42:00,
2013-02-18 22:47:00,47.5,40.0,29.56,North,0,0.0,0.0,75,0.00,,,0.00,WUHU216HW,2013-02-19 06:47:00,
2013-02-18 22:53:00,47.5,40.0,29.55,North,0,0.0,0.0,75,0.00,,,0.00,WUHU216HW,2013-02-19 06:53:00,
2013-02-18 22:58:00,47.5,40.0,29.55,North,0,0.0,0.0,75,0.00,,,0.00,WUHU216HW,2013-02-19 06:58:00,
2013-02-18 23:03:00,47.7,40.2,29.55,North,0,0.0,0.0,75,0.00,,,0.00,WUHU216HW,2013-02-19 07:03:00,
2013-02-18 23:08:00,47.7,39.8,29.55,North,0,0.0,0.0,74,0.00,,,0.00,WUHU216HW,2013-02-19 07:08:00,
2013-02-18 23:13:00,47.5,39.6,29.55,North,0,0.0,0.0,74,0.00,,,0.00,WUHU216HW,2013-02-19 07:13:00,
2013-02-18 23:18:00,47.3,39.4,29.55,North,0,0.0,0.0,74,0.00,,,0.00,WUHU216HW,2013-02-19 07:18:00,
2013-02-18 23:23:00,47.2,39.2,29.55,North,0,0.0,0.0,74,0.00,,,0.00,WUHU216HW,2013-02-19 07:23:00,
2013-02-18 23:28:00,47.2,39.2,29.55,North,0,0.0,0.0,74,0.00,,,0.00,WUHU216HW,2013-02-19 07:28:00,
2013-02-18 23:33:00,47.0,39.2,29.55,North,0,0.0,0.0,74,0.00,,,0.00,WUHU216HW,2013-02-19 07:33:00,
2013-02-18 23:38:00,46.8,39.0,29.55,North,0,0.0,0.0,74,0.00,,,0.00,WUHU216HW,2013-02-19 07:38:00,
2013-02-18 23:43:00,46.8,39.0,29.55,North,0,0.0,0.0,74,0.00,,,0.00,WUHU216HW,2013-02-19 07:43:00,
2013-02-18 23:48:00,46.6,39.2,29.56,North,0,0.0,0.0,75,0.00,,,0.00,WUHU216HW,2013-02-19 07:48:00,
2013-02-18 23:53:00,46.6,38.8,29.56,North,0,0.0,0.0,74,0.00,,,0.00,WUHU216HW,2013-02-19 07:53:00,
2013-02-18 23:58:00,46.4,39.0,29.56,North,0,0.0,0.0,75,0.00,,,0.00,WUHU216HW,2013-02-19 07:58:00,